Time;durP1;ratioP1;P1;durP2;ratioP2;P2;SDS_P1;SDS_P2;PMS_P1;PMS_P2;Temp;Humidity;BMP_temperature;BMP_pressure;BME280_temperature;BME280_humidity;BME280_pressure;Samples;Min_cycle;Max_cycle;Signal;HPM_P1;HPM_P2
2023/07/28 00:00:38;;;;;;;6.13;3.15;;;;;;;;;;6254933;23;20166;-89
2023/07/28 00:03:44;;;;;;;8.82;3.05;;;;;;;;;;6256045;23;20294;-89
2023/07/28 00:06:49;;;;;;;7.95;3.53;;;;;;;;;;6254342;22;20162;-88
2023/07/28 00:09:54;;;;;;;5.35;3.47;;;;;;;;;;6252984;22;20178;-87
2023/07/28 00:13:02;;;;;;;5.78;3.58;;;;;;;;;;6253539;23;20214;-88
2023/07/28 00:16:08;;;;;;;4.50;2.88;;;;;;;;;;6254226;22;20225;-89
2023/07/28 00:19:14;;;;;;;4.03;2.70;;;;;;;;;;6255163;22;20205;-89
2023/07/28 00:22:20;;;;;;;7.50;3.00;;;;;;;;;;6255468;23;20305;-87
2023/07/28 00:25:25;;;;;;;5.63;3.00;;;;;;;;;;6254034;22;20170;-87
2023/07/28 00:28:30;;;;;;;5.68;3.42;;;;;;;;;;6236791;22;20171;-88
2023/07/28 00:31:35;;;;;;;6.03;2.90;;;;;;;;;;6237308;22;20690;-89
2023/07/28 00:34:41;;;;;;;5.22;3.15;;;;;;;;;;6238468;22;20167;-88
2023/07/28 00:37:50;;;;;;;6.25;3.33;;;;;;;;;;6236906;23;20167;-89
2023/07/28 00:40:54;;;;;;;5.82;3.25;;;;;;;;;;6236851;23;20170;-87
2023/07/28 00:44:03;;;;;;;6.25;3.22;;;;;;;;;;6236557;23;20166;-87
2023/07/28 00:47:08;;;;;;;5.13;3.20;;;;;;;;;;6236825;22;20170;-88
2023/07/28 00:50:15;;;;;;;4.50;2.70;;;;;;;;;;6236864;22;20166;-88
2023/07/28 00:53:20;;;;;;;5.20;2.75;;;;;;;;;;6235867;23;20169;-87
2023/07/28 00:56:25;;;;;;;4.00;2.75;;;;;;;;;;6236957;23;20219;-88
2023/07/28 01:03:07;;;;;;;4.40;2.72;;;;;;;;;;6236741;23;20206;-88
2023/07/28 01:06:20;;;;;;;5.28;3.20;;;;;;;;;;6236709;23;20162;-87
2023/07/28 01:09:30;;;;;;;6.35;3.33;;;;;;;;;;6236675;23;20166;-89
2023/07/28 01:12:36;;;;;;;5.65;3.67;;;;;;;;;;6236441;22;20174;-88
2023/07/28 01:15:41;;;;;;;6.40;3.30;;;;;;;;;;6235742;22;20165;-89
2023/07/28 01:18:46;;;;;;;7.32;3.13;;;;;;;;;;6236935;22;20167;-88
2023/07/28 01:21:55;;;;;;;5.07;3.13;;;;;;;;;;6255322;22;20642;-89
2023/07/28 01:25:08;;;;;;;10.77;3.38;;;;;;;;;;6235591;23;20174;-89
2023/07/28 01:28:15;;;;;;;5.78;3.38;;;;;;;;;;6225807;22;20151;-89
2023/07/28 01:31:26;;;;;;;5.00;3.00;;;;;;;;;;6206067;23;20168;-87
2023/07/28 01:34:30;;;;;;;5.28;2.90;;;;;;;;;;6208155;23;20163;-88
2023/07/28 01:37:42;;;;;;;5.85;3.10;;;;;;;;;;6206881;23;20183;-89
2023/07/28 01:40:47;;;;;;;5.85;3.03;;;;;;;;;;6206590;23;20162;-88
2023/07/28 01:43:55;;;;;;;8.60;3.30;;;;;;;;;;6208550;22;20474;-89
2023/07/28 01:47:00;;;;;;;6.47;3.25;;;;;;;;;;6207400;22;20167;-89
2023/07/28 01:50:05;;;;;;;6.30;3.60;;;;;;;;;;6209054;23;20168;-89
2023/07/28 01:53:10;;;;;;;5.55;3.10;;;;;;;;;;6208799;23;20167;-89
2023/07/28 01:56:15;;;;;;;4.68;3.20;;;;;;;;;;6207607;23;20614;-87
2023/07/28 01:59:25;;;;;;;8.15;3.17;;;;;;;;;;6207983;23;20183;-89
2023/07/28 02:02:30;;;;;;;7.47;3.25;;;;;;;;;;6208924;22;20555;-89
2023/07/28 02:05:35;;;;;;;8.57;3.22;;;;;;;;;;6208141;23;20171;-90
2023/07/28 02:08:43;;;;;;;5.18;3.17;;;;;;;;;;6207803;23;20602;-90
2023/07/28 02:11:48;;;;;;;5.60;3.28;;;;;;;;;;6224293;22;20163;-88
2023/07/28 02:14:54;;;;;;;5.50;3.50;;;;;;;;;;6207363;23;20151;-88
2023/07/28 02:17:59;;;;;;;8.00;3.33;;;;;;;;;;6207754;22;20166;-89
2023/07/28 02:21:04;;;;;;;5.75;3.20;;;;;;;;;;6207172;23;20179;-89
2023/07/28 02:24:09;;;;;;;4.88;3.03;;;;;;;;;;6208286;23;20206;-89
2023/07/28 02:27:15;;;;;;;5.82;3.10;;;;;;;;;;6241363;23;20752;-89
2023/07/28 02:30:21;;;;;;;5.80;3.05;;;;;;;;;;6255615;23;20171;-90
2023/07/28 02:33:54;;;;;;;5.22;3.53;;;;;;;;;;6256621;22;20155;-88
2023/07/28 02:36:59;;;;;;;4.95;3.35;;;;;;;;;;6255302;22;20509;-88
2023/07/28 02:40:05;;;;;;;6.32;3.58;;;;;;;;;;6256147;23;20167;-89
2023/07/28 02:43:10;;;;;;;5.88;3.35;;;;;;;;;;6255745;23;20658;-87
2023/07/28 02:46:16;;;;;;;6.00;3.50;;;;;;;;;;6256455;22;20185;-87
2023/07/28 02:49:21;;;;;;;5.75;3.22;;;;;;;;;;6256252;22;20190;-89
2023/07/28 02:52:26;;;;;;;8.50;3.75;;;;;;;;;;6256063;22;20217;-88
2023/07/28 02:55:30;;;;;;;7.47;3.83;;;;;;;;;;6256351;23;20162;-87
2023/07/28 02:58:35;;;;;;;8.32;4.38;;;;;;;;;;6254306;23;20663;-88
2023/07/28 03:01:42;;;;;;;6.05;3.80;;;;;;;;;;6256255;22;20146;-88
2023/07/28 03:04:48;;;;;;;8.93;4.20;;;;;;;;;;6256510;22;20234;-88
2023/07/28 03:08:13;;;;;;;9.02;3.80;;;;;;;;;;6255721;22;20162;-88
2023/07/28 03:11:23;;;;;;;7.28;3.90;;;;;;;;;;6254217;23;20209;-88
2023/07/28 03:14:29;;;;;;;13.27;3.80;;;;;;;;;;6255708;22;20182;-89
2023/07/28 03:17:36;;;;;;;6.25;3.83;;;;;;;;;;6255643;22;20173;-88
2023/07/28 03:20:44;;;;;;;8.50;4.00;;;;;;;;;;6256952;22;20167;-88
2023/07/28 03:23:49;;;;;;;6.30;3.88;;;;;;;;;;6254330;23;20193;-88
2023/07/28 03:26:54;;;;;;;9.43;5.05;;;;;;;;;;6253962;23;20193;-87
2023/07/28 03:29:59;;;;;;;14.15;4.15;;;;;;;;;;6256365;23;20169;-90
2023/07/28 03:33:07;;;;;;;7.05;4.10;;;;;;;;;;6256044;22;20171;-88
2023/07/28 03:36:12;;;;;;;5.75;3.65;;;;;;;;;;6255796;23;20165;-86
2023/07/28 03:39:16;;;;;;;7.43;3.90;;;;;;;;;;6255374;23;20175;-87
2023/07/28 03:42:25;;;;;;;7.35;4.00;;;;;;;;;;6254678;23;20190;-88
2023/07/28 03:45:30;;;;;;;8.35;4.30;;;;;;;;;;6256251;23;20185;-89
2023/07/28 03:48:37;;;;;;;5.55;3.78;;;;;;;;;;6256336;22;20629;-88
2023/07/28 03:51:42;;;;;;;7.65;4.00;;;;;;;;;;6255591;22;20170;-88
2023/07/28 03:54:50;;;;;;;6.93;3.70;;;;;;;;;;6256019;23;20234;-88
2023/07/28 03:57:55;;;;;;;7.63;3.95;;;;;;;;;;6253855;22;20166;-88
2023/07/28 04:01:00;;;;;;;5.80;3.53;;;;;;;;;;6255844;22;20197;-87
2023/07/28 04:04:07;;;;;;;10.27;4.15;;;;;;;;;;6254515;22;20248;-88
2023/07/28 04:07:12;;;;;;;7.47;3.88;;;;;;;;;;6255742;22;20210;-87
2023/07/28 04:10:17;;;;;;;7.05;4.07;;;;;;;;;;6255057;23;20201;-88
2023/07/28 04:13:22;;;;;;;7.70;4.20;;;;;;;;;;6254467;22;20166;-87
2023/07/28 04:16:27;;;;;;;6.57;3.63;;;;;;;;;;6254812;22;20174;-88
2023/07/28 04:19:34;;;;;;;6.78;3.92;;;;;;;;;;6254737;22;20285;-88
2023/07/28 04:22:40;;;;;;;8.25;4.03;;;;;;;;;;6255751;22;20254;-88
2023/07/28 04:25:45;;;;;;;9.13;4.18;;;;;;;;;;6254772;23;20182;-87
2023/07/28 04:28:50;;;;;;;7.00;3.97;;;;;;;;;;6236634;23;20170;-87
2023/07/28 04:31:55;;;;;;;11.90;4.00;;;;;;;;;;6236389;22;20166;-89
2023/07/28 04:35:09;;;;;;;8.80;3.72;;;;;;;;;;6237405;22;20175;-88
2023/07/28 04:38:28;;;;;;;8.68;4.07;;;;;;;;;;6237858;22;20178;-87
2023/07/28 04:41:36;;;;;;;8.77;4.25;;;;;;;;;;6235521;23;20170;-87
2023/07/28 04:44:41;;;;;;;14.93;4.90;;;;;;;;;;6237365;23;20520;-88
2023/07/28 04:47:46;;;;;;;9.90;5.30;;;;;;;;;;6236010;23;20173;-87
2023/07/28 04:50:53;;;;;;;8.57;5.13;;;;;;;;;;6235979;23;20630;-88
2023/07/28 04:54:17;;;;;;;6.90;4.20;;;;;;;;;;6256297;23;20235;-87
2023/07/28 04:57:26;;;;;;;8.95;4.60;;;;;;;;;;6241647;23;20174;-88
2023/07/28 05:00:56;;;;;;;8.45;4.53;;;;;;;;;;6239958;22;20154;-87
2023/07/28 05:04:02;;;;;;;11.20;4.45;;;;;;;;;;6240948;23;20194;-87
2023/07/28 05:07:09;;;;;;;10.25;4.47;;;;;;;;;;6237449;23;20186;-87
2023/07/28 05:10:14;;;;;;;8.57;4.65;;;;;;;;;;6240963;23;20543;-86
2023/07/28 05:13:20;;;;;;;10.65;4.78;;;;;;;;;;6240809;22;20625;-87
2023/07/28 05:16:32;;;;;;;8.43;4.85;;;;;;;;;;6241566;22;20194;-89
2023/07/28 05:19:51;;;;;;;8.52;4.40;;;;;;;;;;6261684;22;20159;-87
2023/07/28 05:23:44;;;;;;;6.35;4.10;;;;;;;;;;6225604;23;20198;-87
2023/07/28 05:26:52;;;;;;;6.40;3.85;;;;;;;;;;6248088;22;20270;-89
2023/07/28 05:29:57;;;;;;;8.25;4.03;;;;;;;;;;6262465;22;20585;-88
2023/07/28 05:33:06;;;;;;;8.35;4.10;;;;;;;;;;6262805;22;20167;-89
2023/07/28 05:36:24;;;;;;;7.40;3.22;;;;;;;;;;6261274;22;20227;-88
2023/07/28 05:39:37;;;;;;;7.47;3.70;;;;;;;;;;6262396;23;20196;-88
2023/07/28 05:42:44;;;;;;;7.72;3.42;;;;;;;;;;6262162;22;20162;-87
2023/07/28 05:45:49;;;;;;;8.98;3.85;;;;;;;;;;6260437;22;20154;-88
2023/07/28 05:48:56;;;;;;;5.20;3.40;;;;;;;;;;6261366;23;20174;-88
2023/07/28 05:52:01;;;;;;;5.97;3.70;;;;;;;;;;6260192;22;20186;-88
2023/07/28 05:55:07;;;;;;;5.05;3.33;;;;;;;;;;6260724;22;20214;-89
2023/07/28 05:58:14;;;;;;;6.07;3.15;;;;;;;;;;6259113;22;20186;-88
2023/07/28 06:01:19;;;;;;;7.20;3.65;;;;;;;;;;6260455;22;20165;-89
2023/07/28 06:04:56;;;;;;;6.68;3.60;;;;;;;;;;6256591;23;20190;-88
2023/07/28 06:08:02;;;;;;;7.22;3.47;;;;;;;;;;6259562;22;20170;-90
2023/07/28 06:11:07;;;;;;;9.48;3.60;;;;;;;;;;6254235;23;20174;-89
2023/07/28 06:14:14;;;;;;;7.32;4.10;;;;;;;;;;6259084;22;20186;-89
2023/07/28 06:17:19;;;;;;;7.63;3.65;;;;;;;;;;6259148;23;20725;-89
2023/07/28 06:20:24;;;;;;;7.28;4.00;;;;;;;;;;6256236;22;20255;-88
2023/07/28 06:23:29;;;;;;;6.75;3.28;;;;;;;;;;6257541;23;20186;-89
2023/07/28 06:26:37;;;;;;;5.75;3.30;;;;;;;;;;6255810;22;20589;-90
2023/07/28 06:29:44;;;;;;;6.70;3.70;;;;;;;;;;6257459;23;20166;-89
2023/07/28 06:36:28;;;;;;;7.85;4.05;;;;;;;;;;6260576;23;20159;-90
2023/07/28 06:39:34;;;;;;;8.60;4.43;;;;;;;;;;6258902;22;20167;-88
2023/07/28 06:42:39;;;;;;;7.57;3.50;;;;;;;;;;6258040;22;20162;-89
2023/07/28 06:45:46;;;;;;;8.40;3.90;;;;;;;;;;6260562;23;20186;-88
2023/07/28 06:48:51;;;;;;;6.50;3.70;;;;;;;;;;6257302;22;20165;-87
2023/07/28 06:51:56;;;;;;;8.65;3.58;;;;;;;;;;6258430;23;20162;-87
2023/07/28 06:55:01;;;;;;;7.47;3.63;;;;;;;;;;6258491;23;20190;-88
2023/07/28 06:58:09;;;;;;;7.63;3.50;;;;;;;;;;6257871;22;20182;-89
2023/07/28 07:01:16;;;;;;;7.32;3.60;;;;;;;;;;6255292;23;20625;-89
2023/07/28 07:04:21;;;;;;;5.05;3.40;;;;;;;;;;6254570;22;20189;-87
2023/07/28 07:07:27;;;;;;;6.03;3.50;;;;;;;;;;6259291;23;20220;-89
2023/07/28 07:10:36;;;;;;;9.80;4.20;;;;;;;;;;6260263;23;20166;-88
2023/07/28 07:13:41;;;;;;;7.43;3.28;;;;;;;;;;6258863;23;20591;-88
2023/07/28 07:16:47;;;;;;;6.18;3.53;;;;;;;;;;6260693;22;20170;-89
2023/07/28 07:19:52;;;;;;;7.30;3.80;;;;;;;;;;6260128;22;20163;-88
2023/07/28 07:22:58;;;;;;;10.80;3.80;;;;;;;;;;6259437;23;20182;-88
2023/07/28 07:26:03;;;;;;;6.43;3.88;;;;;;;;;;6260737;22;20197;-88
2023/07/28 07:29:09;;;;;;;6.90;3.28;;;;;;;;;;6238652;23;20218;-88
2023/07/28 07:32:16;;;;;;;7.07;4.00;;;;;;;;;;6245690;23;20169;-90
2023/07/28 07:35:22;;;;;;;8.88;3.20;;;;;;;;;;6240359;22;20289;-88
2023/07/28 07:38:27;;;;;;;7.72;3.50;;;;;;;;;;6241364;23;20230;-87
2023/07/28 07:41:33;;;;;;;8.27;3.35;;;;;;;;;;6241501;23;20174;-87
2023/07/28 07:44:39;;;;;;;7.80;3.50;;;;;;;;;;6241552;23;20240;-88
2023/07/28 07:47:45;;;;;;;7.90;3.63;;;;;;;;;;6241871;22;20151;-88
2023/07/28 07:50:50;;;;;;;7.45;3.58;;;;;;;;;;6242803;22;20505;-88
2023/07/28 07:53:56;;;;;;;8.23;3.60;;;;;;;;;;6242507;22;20174;-87
2023/07/28 07:57:00;;;;;;;10.73;4.05;;;;;;;;;;6243712;22;20169;-88
2023/07/28 08:00:08;;;;;;;7.53;3.47;;;;;;;;;;6241308;23;20171;-87
2023/07/28 08:03:21;;;;;;;5.40;3.03;;;;;;;;;;6259815;22;20178;-88
2023/07/28 08:06:26;;;;;;;8.45;3.35;;;;;;;;;;6243157;22;20206;-89
2023/07/28 08:09:32;;;;;;;8.80;3.47;;;;;;;;;;6243499;22;20225;-89
2023/07/28 08:12:37;;;;;;;7.45;3.22;;;;;;;;;;6246128;22;20239;-87
2023/07/28 08:15:44;;;;;;;5.50;3.20;;;;;;;;;;6242617;23;20215;-89
2023/07/28 08:18:51;;;;;;;7.03;2.83;;;;;;;;;;6238354;23;20166;-88
2023/07/28 08:21:56;;;;;;;6.25;3.42;;;;;;;;;;6239941;22;20214;-87
2023/07/28 08:25:01;;;;;;;7.70;3.55;;;;;;;;;;6239067;22;20277;-89
2023/07/28 08:28:07;;;;;;;6.72;3.10;;;;;;;;;;6241126;22;20162;-87
2023/07/28 08:31:12;;;;;;;5.15;2.90;;;;;;;;;;6239454;23;20166;-88
2023/07/28 08:34:19;;;;;;;5.47;3.05;;;;;;;;;;6238596;23;20617;-90
2023/07/28 08:37:32;;;;;;;7.43;3.00;;;;;;;;;;6243299;23;20202;-90
2023/07/28 08:40:38;;;;;;;3.75;2.78;;;;;;;;;;6243287;22;20161;-88
2023/07/28 08:43:44;;;;;;;3.58;2.50;;;;;;;;;;6242838;22;20508;-91
2023/07/28 08:46:53;;;;;;;7.93;3.70;;;;;;;;;;6241003;23;20165;-89
2023/07/28 08:50:11;;;;;;;6.07;2.97;;;;;;;;;;6243624;23;20162;-89
2023/07/28 08:53:16;;;;;;;7.43;2.60;;;;;;;;;;6243712;22;20166;-88
2023/07/28 08:56:23;;;;;;;4.75;2.70;;;;;;;;;;6247231;22;20153;-89
2023/07/28 08:59:29;;;;;;;5.57;2.83;;;;;;;;;;6244149;23;20165;-89
2023/07/28 09:02:35;;;;;;;6.82;2.53;;;;;;;;;;6241718;23;20499;-89
2023/07/28 09:05:42;;;;;;;4.25;2.40;;;;;;;;;;6241949;23;20192;-88
2023/07/28 09:08:48;;;;;;;8.90;2.83;;;;;;;;;;6245595;22;20215;-88
2023/07/28 09:11:58;;;;;;;7.05;2.78;;;;;;;;;;6244484;22;20178;-89
2023/07/28 10:28:32;;;;;;;4.78;3.00;;;;;;;;;;6221045;22;20239;-89
2023/07/28 10:35:23;;;;;;;4.97;2.78;;;;;;;;;;6244254;22;20187;-88
2023/07/28 10:38:34;;;;;;;6.72;3.63;;;;;;;;;;6243685;23;20163;-87
2023/07/28 10:41:39;;;;;;;7.97;3.30;;;;;;;;;;6245160;23;20170;-87
2023/07/28 10:44:46;;;;;;;5.32;3.47;;;;;;;;;;6243102;23;20219;-87
2023/07/28 10:47:51;;;;;;;5.78;3.08;;;;;;;;;;6242641;22;20150;-89
2023/07/28 10:50:56;;;;;;;4.35;2.80;;;;;;;;;;6244235;22;20209;-89
2023/07/28 10:54:03;;;;;;;5.97;2.88;;;;;;;;;;6243909;23;20169;-90
2023/07/28 10:57:08;;;;;;;3.92;2.50;;;;;;;;;;6242027;23;20170;-90
2023/07/28 11:00:17;;;;;;;6.32;3.03;;;;;;;;;;6243343;22;20205;-90
2023/07/28 11:03:22;;;;;;;6.68;3.40;;;;;;;;;;6244658;22;20170;-89
2023/07/28 11:06:28;;;;;;;4.55;3.00;;;;;;;;;;6244151;22;20194;-87
2023/07/28 11:09:33;;;;;;;4.00;2.72;;;;;;;;;;6241953;23;20625;-89
2023/07/28 11:12:40;;;;;;;5.60;2.55;;;;;;;;;;6240660;23;20163;-88
2023/07/28 11:15:48;;;;;;;3.78;2.60;;;;;;;;;;6237399;23;20170;-86
2023/07/28 11:18:57;;;;;;;4.65;2.80;;;;;;;;;;6237829;23;20173;-89
2023/07/28 11:22:02;;;;;;;4.15;2.20;;;;;;;;;;6240047;23;20301;-88
2023/07/28 11:25:09;;;;;;;3.75;2.72;;;;;;;;;;6238589;23;20532;-87
2023/07/28 11:28:14;;;;;;;3.72;2.60;;;;;;;;;;6242861;23;20186;-89
2023/07/28 11:31:27;;;;;;;3.97;2.67;;;;;;;;;;6239636;23;20174;-87
2023/07/28 11:34:37;;;;;;;9.70;4.35;;;;;;;;;;6244252;23;20185;-89
2023/07/28 11:37:50;;;;;;;48.28;32.67;;;;;;;;;;6240591;23;20175;-88
2023/07/28 11:40:55;;;;;;;6.22;3.35;;;;;;;;;;6239224;23;20179;-88
2023/07/28 11:44:01;;;;;;;4.45;3.08;;;;;;;;;;6241090;23;20216;-89
2023/07/28 11:47:09;;;;;;;4.78;3.10;;;;;;;;;;6237637;23;20175;-89
2023/07/28 11:50:23;;;;;;;4.70;3.10;;;;;;;;;;6240950;23;20618;-88
2023/07/28 11:53:28;;;;;;;11.48;4.57;;;;;;;;;;6239248;23;20167;-88
2023/07/28 11:56:38;;;;;;;7.03;3.28;;;;;;;;;;6242199;23;20167;-89
2023/07/28 11:59:54;;;;;;;6.00;3.30;;;;;;;;;;6240566;23;20155;-89
2023/07/28 12:03:05;;;;;;;10.00;3.95;;;;;;;;;;6239752;22;20167;-87
2023/07/28 12:06:10;;;;;;;6.70;3.55;;;;;;;;;;6240560;23;20274;-91
2023/07/28 12:09:19;;;;;;;6.85;3.25;;;;;;;;;;6239298;23;20241;-88
2023/07/28 12:12:26;;;;;;;6.30;3.15;;;;;;;;;;6238716;23;20467;-91
2023/07/28 12:15:32;;;;;;;7.45;3.70;;;;;;;;;;6240093;23;20175;-88
2023/07/28 12:18:39;;;;;;;6.50;3.67;;;;;;;;;;6239870;22;20166;-88
2023/07/28 12:21:44;;;;;;;6.72;3.45;;;;;;;;;;6239282;23;20291;-90
2023/07/28 12:24:49;;;;;;;6.97;3.30;;;;;;;;;;6237159;23;20190;-90
2023/07/28 12:27:54;;;;;;;5.43;3.60;;;;;;;;;;6235037;23;20182;-88
2023/07/28 12:31:01;;;;;;;8.27;4.07;;;;;;;;;;6256388;22;20171;-88
2023/07/28 12:34:07;;;;;;;7.63;3.33;;;;;;;;;;6239047;22;20170;-87
2023/07/28 12:37:14;;;;;;;27.90;5.10;;;;;;;;;;6242447;23;20186;-88
2023/07/28 12:40:20;;;;;;;18.73;5.22;;;;;;;;;;6241343;23;20166;-87
2023/07/28 12:43:25;;;;;;;10.27;4.75;;;;;;;;;;6240115;23;20209;-87
2023/07/28 12:46:31;;;;;;;14.65;4.32;;;;;;;;;;6238835;22;20194;-89
2023/07/28 12:49:37;;;;;;;13.52;4.40;;;;;;;;;;6236199;23;20170;-88
2023/07/28 12:52:42;;;;;;;7.05;4.07;;;;;;;;;;6238686;23;20621;-88
2023/07/28 12:55:47;;;;;;;8.07;4.32;;;;;;;;;;6239549;23;20262;-86
2023/07/28 12:59:29;;;;;;;9.27;4.68;;;;;;;;;;6241348;23;20173;-88
2023/07/28 13:02:34;;;;;;;9.10;4.63;;;;;;;;;;6240668;22;20170;-89
2023/07/28 13:05:43;;;;;;;11.77;4.80;;;;;;;;;;6240545;23;20190;-87
2023/07/28 13:08:48;;;;;;;11.50;5.30;;;;;;;;;;6238338;23;20171;-88
2023/07/28 13:11:53;;;;;;;12.10;4.90;;;;;;;;;;6236108;23;20162;-89
2023/07/28 13:14:58;;;;;;;7.35;4.28;;;;;;;;;;6237406;22;20165;-87
2023/07/28 13:18:04;;;;;;;9.40;4.70;;;;;;;;;;6238746;22;20171;-87
2023/07/28 13:21:11;;;;;;;11.23;4.55;;;;;;;;;;6238283;23;20167;-88
2023/07/28 13:24:16;;;;;;;10.15;4.15;;;;;;;;;;6244622;23;20281;-87
2023/07/28 13:27:21;;;;;;;7.80;3.97;;;;;;;;;;6240933;23;20282;-88
2023/07/28 13:30:27;;;;;;;8.45;4.00;;;;;;;;;;6239473;22;20150;-88
2023/07/28 13:33:32;;;;;;;6.72;4.03;;;;;;;;;;6244099;22;20206;-89
2023/07/28 13:36:38;;;;;;;7.78;4.68;;;;;;;;;;6239904;23;20170;-88
2023/07/28 13:39:44;;;;;;;5.85;3.83;;;;;;;;;;6243220;23;20237;-88
2023/07/28 13:42:49;;;;;;;7.13;3.63;;;;;;;;;;6243254;23;20151;-89
2023/07/28 13:45:55;;;;;;;5.75;3.40;;;;;;;;;;6240388;22;20194;-89
2023/07/28 13:49:01;;;;;;;6.00;3.92;;;;;;;;;;6241732;22;20235;-89
2023/07/28 13:52:08;;;;;;;9.25;4.10;;;;;;;;;;6240791;22;20238;-88
2023/07/28 13:55:13;;;;;;;6.63;3.63;;;;;;;;;;6242712;22;20171;-87
2023/07/28 13:58:19;;;;;;;5.28;3.58;;;;;;;;;;6240414;23;20170;-88
2023/07/28 14:01:24;;;;;;;7.82;3.72;;;;;;;;;;6243290;23;20162;-88
2023/07/28 14:04:29;;;;;;;5.80;3.38;;;;;;;;;;6240721;23;20614;-87
2023/07/28 14:07:37;;;;;;;8.20;4.32;;;;;;;;;;6244104;22;20155;-88
2023/07/28 14:10:45;;;;;;;7.32;4.32;;;;;;;;;;6241550;22;20189;-89
2023/07/28 14:13:50;;;;;;;7.75;4.00;;;;;;;;;;6245137;23;20228;-89
2023/07/28 14:16:56;;;;;;;9.43;4.90;;;;;;;;;;6241223;22;20178;-88
2023/07/28 14:20:01;;;;;;;8.88;5.35;;;;;;;;;;6242345;22;20211;-88
2023/07/28 14:41:52;;;;;;;5.78;3.80;;;;;;;;;;6171975;22;1664830;-87
2023/07/28 14:44:57;;;;;;;5.85;3.30;;;;;;;;;;6217776;23;20226;-88
2023/07/28 14:48:04;;;;;;;7.90;3.80;;;;;;;;;;6215922;23;20186;-89
2023/07/28 14:51:09;;;;;;;4.43;3.05;;;;;;;;;;6216320;23;20163;-88
2023/07/28 14:54:14;;;;;;;5.38;3.30;;;;;;;;;;6217765;23;20167;-87
2023/07/28 14:57:21;;;;;;;4.97;3.42;;;;;;;;;;6214894;23;20167;-89
2023/07/28 15:00:25;;;;;;;7.50;3.50;;;;;;;;;;6214948;23;20167;-90
2023/07/28 15:03:31;;;;;;;8.40;3.20;;;;;;;;;;6218132;23;20174;-89
2023/07/28 15:06:36;;;;;;;6.97;3.60;;;;;;;;;;6215844;23;20243;-87
2023/07/28 15:09:41;;;;;;;21.63;7.68;;;;;;;;;;6213846;23;20171;-89
2023/07/28 15:12:47;;;;;;;9.45;4.85;;;;;;;;;;6232158;23;20163;-88
2023/07/28 15:15:52;;;;;;;9.32;3.72;;;;;;;;;;6215859;23;20629;-88
2023/07/28 15:18:57;;;;;;;5.97;3.65;;;;;;;;;;6213867;23;20182;-89
2023/07/28 15:22:02;;;;;;;5.63;3.30;;;;;;;;;;6215379;23;20378;-89
2023/07/28 15:25:07;;;;;;;8.48;3.90;;;;;;;;;;6214973;23;20194;-88
2023/07/28 15:28:14;;;;;;;4.85;3.40;;;;;;;;;;6214135;23;20222;-87
2023/07/28 15:31:21;;;;;;;7.00;3.08;;;;;;;;;;6217925;23;20171;-88
2023/07/28 15:34:26;;;;;;;6.35;3.67;;;;;;;;;;6216258;23;20179;-88
2023/07/28 15:37:35;;;;;;;6.70;3.78;;;;;;;;;;6209271;23;20171;-88
2023/07/28 15:40:40;;;;;;;11.70;4.18;;;;;;;;;;6208236;23;20623;-88
2023/07/28 15:43:46;;;;;;;7.68;3.40;;;;;;;;;;6208557;23;20322;-88
2023/07/28 15:46:52;;;;;;;5.75;3.50;;;;;;;;;;6208461;23;20615;-89
2023/07/28 15:50:01;;;;;;;7.60;3.30;;;;;;;;;;6207972;23;20164;-90
2023/07/28 15:53:06;;;;;;;4.80;3.13;;;;;;;;;;6213055;23;20152;-90
2023/07/28 15:56:11;;;;;;;5.97;3.40;;;;;;;;;;6209662;23;20175;-91
2023/07/28 15:59:17;;;;;;;6.75;3.42;;;;;;;;;;6209531;23;20215;-88
2023/07/28 16:02:22;;;;;;;5.65;3.40;;;;;;;;;;6208478;23;20187;-89
2023/07/28 16:05:28;;;;;;;6.43;3.85;;;;;;;;;;6212268;23;20509;-90
2023/07/28 16:08:33;;;;;;;7.10;3.72;;;;;;;;;;6213588;23;20147;-90
2023/07/28 16:11:38;;;;;;;9.15;3.67;;;;;;;;;;6209509;23;20163;-90
2023/07/28 16:14:45;;;;;;;6.30;3.42;;;;;;;;;;6209713;23;20255;-88
2023/07/28 16:17:50;;;;;;;5.78;3.70;;;;;;;;;;6210870;23;20294;-89
2023/07/28 16:20:56;;;;;;;7.25;3.50;;;;;;;;;;6209319;23;20572;-89
2023/07/28 16:24:01;;;;;;;7.07;3.63;;;;;;;;;;6210371;23;20266;-91
2023/07/28 16:27:05;;;;;;;6.70;3.17;;;;;;;;;;6210902;23;20162;-89
2023/07/28 16:30:13;;;;;;;5.55;3.60;;;;;;;;;;6210377;23;20485;-92
2023/07/28 16:33:18;;;;;;;4.65;3.10;;;;;;;;;;6210590;23;20167;-91
2023/07/28 16:36:23;;;;;;;6.57;3.35;;;;;;;;;;6211275;23;20171;-89
2023/07/28 16:39:28;;;;;;;6.25;3.30;;;;;;;;;;6210578;23;20170;-91
2023/07/28 16:42:33;;;;;;;6.32;3.58;;;;;;;;;;6211339;23;20685;-88
2023/07/28 16:45:40;;;;;;;7.45;3.55;;;;;;;;;;6211111;23;20194;-89
2023/07/28 16:48:46;;;;;;;5.88;3.30;;;;;;;;;;6210196;23;20166;-90
2023/07/28 16:51:51;;;;;;;8.35;3.85;;;;;;;;;;6209082;23;20212;-89
2023/07/28 16:54:56;;;;;;;11.85;4.70;;;;;;;;;;6211390;23;20158;-89
2023/07/28 16:58:06;;;;;;;7.40;3.97;;;;;;;;;;6209301;23;20188;-89
2023/07/28 17:01:13;;;;;;;6.70;3.88;;;;;;;;;;6211038;23;20172;-89
2023/07/28 17:04:19;;;;;;;12.32;4.20;;;;;;;;;;6211168;23;20171;-90
2023/07/28 17:07:24;;;;;;;6.30;3.63;;;;;;;;;;6211227;23;20258;-88
2023/07/28 17:10:29;;;;;;;7.30;4.13;;;;;;;;;;6208910;23;20167;-87
2023/07/28 17:13:34;;;;;;;11.20;4.47;;;;;;;;;;6211930;23;20168;-89
2023/07/28 17:16:41;;;;;;;6.60;3.72;;;;;;;;;;6209367;23;20266;-87
2023/07/28 17:19:46;;;;;;;7.03;4.30;;;;;;;;;;6210377;23;20198;-88
2023/07/28 17:22:52;;;;;;;8.18;4.13;;;;;;;;;;6212553;23;20167;-89
2023/07/28 17:25:57;;;;;;;8.52;3.83;;;;;;;;;;6208374;23;20190;-87
2023/07/28 17:29:03;;;;;;;6.50;3.70;;;;;;;;;;6208372;23;20167;-90
2023/07/28 17:32:13;;;;;;;8.65;4.70;;;;;;;;;;6205649;23;20311;-88
2023/07/28 17:35:18;;;;;;;8.40;4.50;;;;;;;;;;6208324;23;20171;-89
2023/07/28 17:38:24;;;;;;;7.05;3.95;;;;;;;;;;6206683;23;20175;-89
2023/07/28 17:41:30;;;;;;;12.57;3.70;;;;;;;;;;6207315;23;20166;-87
2023/07/28 17:44:36;;;;;;;7.63;4.13;;;;;;;;;;6209616;23;20232;-88
2023/07/28 17:47:43;;;;;;;9.10;4.60;;;;;;;;;;6208692;23;20614;-87
2023/07/28 17:50:49;;;;;;;8.38;3.47;;;;;;;;;;6208943;23;20191;-89
2023/07/28 17:53:55;;;;;;;8.38;4.18;;;;;;;;;;6208277;23;20174;-89
2023/07/28 17:57:00;;;;;;;7.03;4.20;;;;;;;;;;6205894;23;20170;-85
2023/07/28 18:00:07;;;;;;;11.38;4.45;;;;;;;;;;6205317;23;20218;-89
2023/07/28 18:03:14;;;;;;;9.05;4.32;;;;;;;;;;6212166;23;20171;-89
2023/07/28 18:06:19;;;;;;;7.85;4.57;;;;;;;;;;6208006;23;20314;-89
2023/07/28 18:09:24;;;;;;;6.90;4.32;;;;;;;;;;6205357;23;20175;-89
2023/07/28 18:12:29;;;;;;;6.38;4.25;;;;;;;;;;6204730;23;20242;-87
2023/07/28 18:15:35;;;;;;;10.45;4.88;;;;;;;;;;6212781;23;20179;-88
2023/07/28 18:18:41;;;;;;;12.95;4.88;;;;;;;;;;6214003;23;20171;-87
2023/07/28 18:21:47;;;;;;;6.93;3.72;;;;;;;;;;6216470;23;20191;-87
2023/07/28 18:24:52;;;;;;;8.13;3.33;;;;;;;;;;6214619;23;20179;-89
2023/07/28 18:27:58;;;;;;;6.95;3.75;;;;;;;;;;6207649;23;20657;-88
2023/07/28 18:31:04;;;;;;;6.82;3.17;;;;;;;;;;6206920;23;20167;-90
2023/07/28 18:34:10;;;;;;;12.68;4.03;;;;;;;;;;6206190;23;20190;-89
2023/07/28 18:37:17;;;;;;;5.00;3.72;;;;;;;;;;6205453;23;20190;-89
2023/07/28 18:40:22;;;;;;;7.88;3.97;;;;;;;;;;6206401;23;20167;-88
2023/07/28 18:43:36;;;;;;;7.05;4.55;;;;;;;;;;6208985;23;20187;-88
2023/07/28 18:46:43;;;;;;;9.10;4.85;;;;;;;;;;6228871;23;20577;-87
2023/07/28 18:49:55;;;;;;;9.60;5.13;;;;;;;;;;6206283;23;20168;-88
2023/07/28 18:53:00;;;;;;;7.95;4.90;;;;;;;;;;6201779;23;20253;-89
2023/07/28 18:56:05;;;;;;;11.60;4.32;;;;;;;;;;6203796;23;20211;-89
2023/07/28 18:59:25;;;;;;;6.78;3.75;;;;;;;;;;6201369;23;20590;-89
2023/07/28 19:02:30;;;;;;;8.40;4.60;;;;;;;;;;6202421;23;20217;-89
2023/07/28 19:05:46;;;;;;;7.50;4.63;;;;;;;;;;6203405;23;20210;-90
2023/07/28 19:08:52;;;;;;;6.45;3.92;;;;;;;;;;6203705;23;20646;-88
2023/07/28 19:11:58;;;;;;;8.00;4.22;;;;;;;;;;6206635;23;20211;-88
2023/07/28 19:15:03;;;;;;;12.77;5.30;;;;;;;;;;6204594;23;20222;-88
2023/07/28 19:18:07;;;;;;;10.25;5.18;;;;;;;;;;6204681;23;20241;-87
2023/07/28 19:21:15;;;;;;;8.77;4.53;;;;;;;;;;6222241;23;20186;-89
2023/07/28 19:24:21;;;;;;;8.57;4.80;;;;;;;;;;6207320;23;20162;-88
2023/07/28 19:27:26;;;;;;;7.75;4.72;;;;;;;;;;6208561;23;20287;-89
2023/07/28 19:30:32;;;;;;;9.55;4.60;;;;;;;;;;6210795;23;20155;-90
2023/07/28 19:33:37;;;;;;;9.13;4.10;;;;;;;;;;6210291;23;20278;-89
2023/07/28 19:36:51;;;;;;;7.03;4.50;;;;;;;;;;6209819;23;20167;-88
2023/07/28 19:40:00;;;;;;;8.13;4.43;;;;;;;;;;6210049;23;20170;-89
2023/07/28 19:43:05;;;;;;;10.00;5.13;;;;;;;;;;6206831;23;20517;-89
2023/07/28 19:46:10;;;;;;;9.55;4.50;;;;;;;;;;6209119;23;20202;-87
2023/07/28 19:49:16;;;;;;;8.05;4.20;;;;;;;;;;6208875;23;20167;-90
2023/07/28 19:52:21;;;;;;;7.25;4.13;;;;;;;;;;6208734;23;20270;-90
2023/07/28 19:55:36;;;;;;;7.40;4.38;;;;;;;;;;6210152;23;20210;-90
2023/07/28 19:58:41;;;;;;;9.57;5.05;;;;;;;;;;6206506;23;20623;-87
2023/07/28 20:01:46;;;;;;;8.43;4.68;;;;;;;;;;6208022;23;20166;-87
2023/07/28 20:04:51;;;;;;;10.25;4.63;;;;;;;;;;6208528;23;20170;-89
2023/07/28 20:07:56;;;;;;;8.10;4.50;;;;;;;;;;6208010;23;20171;-88
2023/07/28 20:11:03;;;;;;;6.40;4.30;;;;;;;;;;6207939;23;20214;-89
2023/07/28 20:14:10;;;;;;;10.65;4.85;;;;;;;;;;6206607;23;20166;-91
2023/07/28 20:17:15;;;;;;;6.22;4.13;;;;;;;;;;6207328;23;20163;-89
2023/07/28 20:20:24;;;;;;;6.65;4.32;;;;;;;;;;6211434;23;20167;-90